sensor_id;sensor_type;location;lat;lon;timestamp;temperature;humidity
2523;DHT22;1272;53.332;9.860;2023-04-03T00:01:31;1.00;4.30
2523;DHT22;1272;53.332;9.860;2023-04-03T00:03:57;1.00;1.00
2523;DHT22;1272;53.332;9.860;2023-04-03T00:06:26;1.00;51.30
2523;DHT22;1272;53.332;9.860;2023-04-03T00:08:52;1.00;46.10
2523;DHT22;1272;53.332;9.860;2023-04-03T00:11:18;1.00;7.20
2523;DHT22;1272;53.332;9.860;2023-04-03T00:13:44;1.00;69.90
2523;DHT22;1272;53.332;9.860;2023-04-03T00:16:10;1.00;66.90
2523;DHT22;1272;53.332;9.860;2023-04-03T00:18:39;0.90;99.90
2523;DHT22;1272;53.332;9.860;2023-04-03T00:21:05;1.00;99.90
2523;DHT22;1272;53.332;9.860;2023-04-03T00:23:31;1.00;93.70
2523;DHT22;1272;53.332;9.860;2023-04-03T00:25:57;1.00;91.90
2523;DHT22;1272;53.332;9.860;2023-04-03T00:28:23;0.90;21.60
2523;DHT22;1272;53.332;9.860;2023-04-03T00:30:50;0.90;99.90
2523;DHT22;1272;53.332;9.860;2023-04-03T00:33:16;0.90;99.90
2523;DHT22;1272;53.332;9.860;2023-04-03T00:35:42;0.90;99.90
2523;DHT22;1272;53.332;9.860;2023-04-03T00:38:08;0.90;99.50
2523;DHT22;1272;53.332;9.860;2023-04-03T00:40:36;0.80;99.90
2523;DHT22;1272;53.332;9.860;2023-04-03T00:43:10;0.80;99.90
2523;DHT22;1272;53.332;9.860;2023-04-03T00:45:46;0.80;99.90
2523;DHT22;1272;53.332;9.860;2023-04-03T00:48:37;0.80;99.90
2523;DHT22;1272;53.332;9.860;2023-04-03T00:51:03;0.80;99.90
2523;DHT22;1272;53.332;9.860;2023-04-03T00:56:30;0.70;99.90
2523;DHT22;1272;53.332;9.860;2023-04-03T00:59:05;0.70;99.90
2523;DHT22;1272;53.332;9.860;2023-04-03T01:01:34;0.70;99.90
2523;DHT22;1272;53.332;9.860;2023-04-03T01:04:01;0.70;99.90
2523;DHT22;1272;53.332;9.860;2023-04-03T01:06:30;0.70;99.90
2523;DHT22;1272;53.332;9.860;2023-04-03T01:08:58;0.60;99.90
2523;DHT22;1272;53.332;9.860;2023-04-03T01:11:24;0.50;99.90
2523;DHT22;1272;53.332;9.860;2023-04-03T01:13:50;0.60;99.90
2523;DHT22;1272;53.332;9.860;2023-04-03T01:16:16;0.60;99.90
2523;DHT22;1272;53.332;9.860;2023-04-03T01:18:42;0.60;99.90
2523;DHT22;1272;53.332;9.860;2023-04-03T01:23:51;0.70;99.90
2523;DHT22;1272;53.332;9.860;2023-04-03T01:26:19;0.70;99.90
2523;DHT22;1272;53.332;9.860;2023-04-03T01:28:45;0.60;99.90
2523;DHT22;1272;53.332;9.860;2023-04-03T01:31:16;0.70;99.90
2523;DHT22;1272;53.332;9.860;2023-04-03T01:33:44;0.70;99.90
2523;DHT22;1272;53.332;9.860;2023-04-03T01:36:16;0.70;99.90
2523;DHT22;1272;53.332;9.860;2023-04-03T01:38:42;0.70;99.90
2523;DHT22;1272;53.332;9.860;2023-04-03T01:41:07;0.60;99.90
2523;DHT22;1272;53.332;9.860;2023-04-03T01:43:33;0.50;99.90
2523;DHT22;1272;53.332;9.860;2023-04-03T01:45:59;0.40;99.90
2523;DHT22;1272;53.332;9.860;2023-04-03T01:48:24;0.40;99.90
2523;DHT22;1272;53.332;9.860;2023-04-03T01:50:50;0.30;99.90
2523;DHT22;1272;53.332;9.860;2023-04-03T01:53:16;0.40;99.90
2523;DHT22;1272;53.332;9.860;2023-04-03T01:55:42;0.40;99.90
2523;DHT22;1272;53.332;9.860;2023-04-03T01:58:07;0.30;99.90
2523;DHT22;1272;53.332;9.860;2023-04-03T02:00:33;0.40;99.90
2523;DHT22;1272;53.332;9.860;2023-04-03T02:02:59;0.40;99.90
2523;DHT22;1272;53.332;9.860;2023-04-03T02:05:24;0.40;99.90
2523;DHT22;1272;53.332;9.860;2023-04-03T02:07:50;0.40;99.90
2523;DHT22;1272;53.332;9.860;2023-04-03T02:10:16;0.40;99.90
2523;DHT22;1272;53.332;9.860;2023-04-03T02:12:41;0.50;99.90
2523;DHT22;1272;53.332;9.860;2023-04-03T02:15:07;0.50;99.90
2523;DHT22;1272;53.332;9.860;2023-04-03T02:17:34;0.50;99.90
2523;DHT22;1272;53.332;9.860;2023-04-03T02:20:00;0.50;99.90
2523;DHT22;1272;53.332;9.860;2023-04-03T02:22:26;0.50;99.90
2523;DHT22;1272;53.332;9.860;2023-04-03T02:24:52;0.40;99.90
2523;DHT22;1272;53.332;9.860;2023-04-03T02:27:17;0.50;99.90
2523;DHT22;1272;53.332;9.860;2023-04-03T02:29:43;0.40;99.90
2523;DHT22;1272;53.332;9.860;2023-04-03T02:32:09;0.40;99.90
2523;DHT22;1272;53.332;9.860;2023-04-03T02:34:35;0.40;99.90
2523;DHT22;1272;53.332;9.860;2023-04-03T02:37:00;0.40;99.90
2523;DHT22;1272;53.332;9.860;2023-04-03T02:39:26;0.40;99.90
2523;DHT22;1272;53.332;9.860;2023-04-03T02:41:52;0.30;99.90
2523;DHT22;1272;53.332;9.860;2023-04-03T02:44:18;0.20;99.90
2523;DHT22;1272;53.332;9.860;2023-04-03T02:46:44;0.20;99.90
2523;DHT22;1272;53.332;9.860;2023-04-03T02:49:10;0.10;99.90
2523;DHT22;1272;53.332;9.860;2023-04-03T02:51:36;0.10;99.90
2523;DHT22;1272;53.332;9.860;2023-04-03T02:54:01;0.10;99.90
2523;DHT22;1272;53.332;9.860;2023-04-03T02:56:27;0.10;99.90
2523;DHT22;1272;53.332;9.860;2023-04-03T02:58:53;0.10;99.90
2523;DHT22;1272;53.332;9.860;2023-04-03T03:01:20;0.10;99.90
2523;DHT22;1272;53.332;9.860;2023-04-03T03:03:45;0.10;99.90
2523;DHT22;1272;53.332;9.860;2023-04-03T03:06:14;0.10;99.90
2523;DHT22;1272;53.332;9.860;2023-04-03T03:08:41;0.00;99.90
2523;DHT22;1272;53.332;9.860;2023-04-03T03:11:07;0.00;99.90
2523;DHT22;1272;53.332;9.860;2023-04-03T03:13:33;0.00;99.90
2523;DHT22;1272;53.332;9.860;2023-04-03T03:15:59;0.00;99.90
2523;DHT22;1272;53.332;9.860;2023-04-03T03:18:25;-0.10;99.90
2523;DHT22;1272;53.332;9.860;2023-04-03T03:20:55;-0.10;99.90
2523;DHT22;1272;53.332;9.860;2023-04-03T03:23:22;-0.10;99.90
2523;DHT22;1272;53.332;9.860;2023-04-03T03:25:48;0.00;99.90
2523;DHT22;1272;53.332;9.860;2023-04-03T03:28:14;0.00;99.90
2523;DHT22;1272;53.332;9.860;2023-04-03T03:30:40;0.00;99.90
2523;DHT22;1272;53.332;9.860;2023-04-03T03:33:05;-0.10;99.90
2523;DHT22;1272;53.332;9.860;2023-04-03T03:35:32;-0.10;99.90
2523;DHT22;1272;53.332;9.860;2023-04-03T03:37:58;-0.10;99.90
2523;DHT22;1272;53.332;9.860;2023-04-03T03:40:23;-0.20;99.90
2523;DHT22;1272;53.332;9.860;2023-04-03T03:42:49;-0.20;99.90
2523;DHT22;1272;53.332;9.860;2023-04-03T03:45:15;-0.20;99.90
2523;DHT22;1272;53.332;9.860;2023-04-03T03:47:40;-0.20;99.90
2523;DHT22;1272;53.332;9.860;2023-04-03T03:50:07;-0.20;99.90
2523;DHT22;1272;53.332;9.860;2023-04-03T03:52:32;-0.20;99.90
2523;DHT22;1272;53.332;9.860;2023-04-03T03:54:58;-0.20;99.90
2523;DHT22;1272;53.332;9.860;2023-04-03T03:57:24;-0.30;99.90
2523;DHT22;1272;53.332;9.860;2023-04-03T03:59:52;-0.30;99.90
2523;DHT22;1272;53.332;9.860;2023-04-03T04:02:18;-0.30;99.90
2523;DHT22;1272;53.332;9.860;2023-04-03T04:04:43;-0.30;99.90
2523;DHT22;1272;53.332;9.860;2023-04-03T04:07:09;-0.30;99.90
2523;DHT22;1272;53.332;9.860;2023-04-03T04:09:35;-0.40;99.90
2523;DHT22;1272;53.332;9.860;2023-04-03T04:12:00;-0.40;99.90
2523;DHT22;1272;53.332;9.860;2023-04-03T04:14:26;-0.40;99.90
2523;DHT22;1272;53.332;9.860;2023-04-03T04:16:52;-0.40;99.90
2523;DHT22;1272;53.332;9.860;2023-04-03T04:19:17;-0.40;99.90
2523;DHT22;1272;53.332;9.860;2023-04-03T04:21:43;-0.40;99.90
2523;DHT22;1272;53.332;9.860;2023-04-03T04:24:09;-0.40;99.90
2523;DHT22;1272;53.332;9.860;2023-04-03T04:26:35;-0.40;99.90
2523;DHT22;1272;53.332;9.860;2023-04-03T04:29:01;-0.40;99.90
2523;DHT22;1272;53.332;9.860;2023-04-03T04:31:26;-0.40;99.90
2523;DHT22;1272;53.332;9.860;2023-04-03T04:33:52;-0.50;99.90
2523;DHT22;1272;53.332;9.860;2023-04-03T04:36:18;-0.50;99.90
2523;DHT22;1272;53.332;9.860;2023-04-03T04:38:45;-0.50;99.90
2523;DHT22;1272;53.332;9.860;2023-04-03T04:41:10;-0.60;99.90
2523;DHT22;1272;53.332;9.860;2023-04-03T04:43:36;-0.60;99.90
2523;DHT22;1272;53.332;9.860;2023-04-03T04:46:09;-0.60;99.90
2523;DHT22;1272;53.332;9.860;2023-04-03T04:48:37;-0.60;99.90
2523;DHT22;1272;53.332;9.860;2023-04-03T04:51:03;-0.70;99.90
2523;DHT22;1272;53.332;9.860;2023-04-03T04:53:29;-0.70;99.90
2523;DHT22;1272;53.332;9.860;2023-04-03T04:55:55;-0.70;99.90
2523;DHT22;1272;53.332;9.860;2023-04-03T04:58:21;-0.70;99.90
2523;DHT22;1272;53.332;9.860;2023-04-03T05:00:47;-0.70;99.90
2523;DHT22;1272;53.332;9.860;2023-04-03T05:03:13;-0.70;99.90
2523;DHT22;1272;53.332;9.860;2023-04-03T05:05:38;-0.70;99.90
2523;DHT22;1272;53.332;9.860;2023-04-03T05:08:05;-0.70;99.90
2523;DHT22;1272;53.332;9.860;2023-04-03T05:10:31;-0.70;99.90
2523;DHT22;1272;53.332;9.860;2023-04-03T05:12:57;-0.80;99.90
2523;DHT22;1272;53.332;9.860;2023-04-03T05:15:23;-0.80;99.90
2523;DHT22;1272;53.332;9.860;2023-04-03T05:17:49;-0.80;99.90
2523;DHT22;1272;53.332;9.860;2023-04-03T05:20:15;-0.80;99.90
2523;DHT22;1272;53.332;9.860;2023-04-03T05:22:41;-0.80;99.90
2523;DHT22;1272;53.332;9.860;2023-04-03T05:25:07;-0.80;99.90
2523;DHT22;1272;53.332;9.860;2023-04-03T05:27:33;-0.80;99.90
2523;DHT22;1272;53.332;9.860;2023-04-03T05:29:59;-0.80;99.90
2523;DHT22;1272;53.332;9.860;2023-04-03T05:32:25;-0.80;99.90
2523;DHT22;1272;53.332;9.860;2023-04-03T05:34:53;-0.80;99.90
2523;DHT22;1272;53.332;9.860;2023-04-03T05:37:18;-0.80;99.90
2523;DHT22;1272;53.332;9.860;2023-04-03T05:39:44;-0.80;99.90
2523;DHT22;1272;53.332;9.860;2023-04-03T05:42:10;-0.70;99.90
2523;DHT22;1272;53.332;9.860;2023-04-03T05:44:37;-0.70;99.90
2523;DHT22;1272;53.332;9.860;2023-04-03T05:47:03;-0.70;99.90
2523;DHT22;1272;53.332;9.860;2023-04-03T05:49:29;-0.70;99.90
2523;DHT22;1272;53.332;9.860;2023-04-03T05:51:55;-0.70;99.90
2523;DHT22;1272;53.332;9.860;2023-04-03T05:54:32;-0.70;99.90
2523;DHT22;1272;53.332;9.860;2023-04-03T05:56:58;-0.60;99.90
2523;DHT22;1272;53.332;9.860;2023-04-03T05:59:23;-0.60;99.90
2523;DHT22;1272;53.332;9.860;2023-04-03T06:01:49;-0.60;99.90
2523;DHT22;1272;53.332;9.860;2023-04-03T06:04:15;-0.50;99.90
2523;DHT22;1272;53.332;9.860;2023-04-03T06:06:56;-0.50;99.90
2523;DHT22;1272;53.332;9.860;2023-04-03T06:09:25;-0.40;99.90
2523;DHT22;1272;53.332;9.860;2023-04-03T06:11:52;-0.40;99.90
2523;DHT22;1272;53.332;9.860;2023-04-03T06:14:18;-0.30;99.90
2523;DHT22;1272;53.332;9.860;2023-04-03T06:16:44;-0.20;99.90
2523;DHT22;1272;53.332;9.860;2023-04-03T06:19:10;-0.20;99.90
2523;DHT22;1272;53.332;9.860;2023-04-03T06:21:37;-0.10;99.90
2523;DHT22;1272;53.332;9.860;2023-04-03T06:24:04;-0.10;99.90
2523;DHT22;1272;53.332;9.860;2023-04-03T06:26:31;0.00;99.90
2523;DHT22;1272;53.332;9.860;2023-04-03T06:28:57;0.10;99.90
2523;DHT22;1272;53.332;9.860;2023-04-03T06:31:23;0.10;99.90
2523;DHT22;1272;53.332;9.860;2023-04-03T06:33:48;0.30;99.90
2523;DHT22;1272;53.332;9.860;2023-04-03T06:36:17;0.30;99.90
2523;DHT22;1272;53.332;9.860;2023-04-03T06:38:45;0.50;99.90
2523;DHT22;1272;53.332;9.860;2023-04-03T06:41:11;0.60;99.90
2523;DHT22;1272;53.332;9.860;2023-04-03T06:43:37;0.70;99.90
2523;DHT22;1272;53.332;9.860;2023-04-03T06:46:03;0.70;99.90
2523;DHT22;1272;53.332;9.860;2023-04-03T06:48:37;0.90;99.90
2523;DHT22;1272;53.332;9.860;2023-04-03T06:51:03;1.00;99.90
2523;DHT22;1272;53.332;9.860;2023-04-03T06:53:29;1.10;99.90
2523;DHT22;1272;53.332;9.860;2023-04-03T06:55:55;1.20;99.90
2523;DHT22;1272;53.332;9.860;2023-04-03T06:58:20;1.20;99.90
2523;DHT22;1272;53.332;9.860;2023-04-03T07:00:47;1.30;99.90
2523;DHT22;1272;53.332;9.860;2023-04-03T07:03:13;1.40;99.90
2523;DHT22;1272;53.332;9.860;2023-04-03T07:05:39;1.40;99.90
2523;DHT22;1272;53.332;9.860;2023-04-03T07:08:05;1.60;99.90
2523;DHT22;1272;53.332;9.860;2023-04-03T07:10:31;1.70;99.90
2523;DHT22;1272;53.332;9.860;2023-04-03T07:12:57;1.70;99.90
2523;DHT22;1272;53.332;9.860;2023-04-03T07:15:23;1.80;99.90
2523;DHT22;1272;53.332;9.860;2023-04-03T07:17:49;1.90;99.90
2523;DHT22;1272;53.332;9.860;2023-04-03T07:20:15;2.00;99.90
2523;DHT22;1272;53.332;9.860;2023-04-03T07:22:41;2.00;99.90
2523;DHT22;1272;53.332;9.860;2023-04-03T07:25:07;2.20;99.90
2523;DHT22;1272;53.332;9.860;2023-04-03T07:27:33;2.30;99.90
2523;DHT22;1272;53.332;9.860;2023-04-03T07:29:59;2.50;99.90
2523;DHT22;1272;53.332;9.860;2023-04-03T07:32:25;2.60;99.90
2523;DHT22;1272;53.332;9.860;2023-04-03T07:34:51;2.70;99.90
2523;DHT22;1272;53.332;9.860;2023-04-03T07:37:16;2.80;99.90
2523;DHT22;1272;53.332;9.860;2023-04-03T07:39:44;2.80;99.90
2523;DHT22;1272;53.332;9.860;2023-04-03T07:42:10;2.90;99.90
2523;DHT22;1272;53.332;9.860;2023-04-03T07:44:36;2.90;99.90
2523;DHT22;1272;53.332;9.860;2023-04-03T07:47:02;2.90;99.90
2523;DHT22;1272;53.332;9.860;2023-04-03T07:49:27;3.00;99.90
2523;DHT22;1272;53.332;9.860;2023-04-03T07:51:54;3.10;99.90
2523;DHT22;1272;53.332;9.860;2023-04-03T07:54:19;3.10;99.90
2523;DHT22;1272;53.332;9.860;2023-04-03T07:56:45;3.20;99.90
2523;DHT22;1272;53.332;9.860;2023-04-03T07:59:11;3.30;99.90
2523;DHT22;1272;53.332;9.860;2023-04-03T08:01:37;3.50;99.90
2523;DHT22;1272;53.332;9.860;2023-04-03T08:04:03;3.50;99.90
2523;DHT22;1272;53.332;9.860;2023-04-03T08:06:30;3.50;99.90
2523;DHT22;1272;53.332;9.860;2023-04-03T08:08:57;3.50;99.90
2523;DHT22;1272;53.332;9.860;2023-04-03T08:11:24;3.70;99.90
2523;DHT22;1272;53.332;9.860;2023-04-03T08:13:52;3.70;99.90
2523;DHT22;1272;53.332;9.860;2023-04-03T08:16:20;3.70;99.90
2523;DHT22;1272;53.332;9.860;2023-04-03T08:18:48;3.70;99.90
2523;DHT22;1272;53.332;9.860;2023-04-03T08:21:14;3.70;99.90
2523;DHT22;1272;53.332;9.860;2023-04-03T08:23:40;3.80;99.90
2523;DHT22;1272;53.332;9.860;2023-04-03T08:26:13;3.80;99.90
2523;DHT22;1272;53.332;9.860;2023-04-03T08:28:39;3.90;99.90
2523;DHT22;1272;53.332;9.860;2023-04-03T08:31:08;4.00;99.90
2523;DHT22;1272;53.332;9.860;2023-04-03T08:33:36;4.10;99.90
2523;DHT22;1272;53.332;9.860;2023-04-03T08:36:06;4.20;99.90
2523;DHT22;1272;53.332;9.860;2023-04-03T08:38:33;4.20;99.90
2523;DHT22;1272;53.332;9.860;2023-04-03T08:41:11;4.30;99.90
2523;DHT22;1272;53.332;9.860;2023-04-03T08:46:08;4.40;99.90
2523;DHT22;1272;53.332;9.860;2023-04-03T08:48:40;4.40;99.90
2523;DHT22;1272;53.332;9.860;2023-04-03T08:51:15;4.50;99.90
2523;DHT22;1272;53.332;9.860;2023-04-03T08:54:04;4.60;99.90
2523;DHT22;1272;53.332;9.860;2023-04-03T08:56:31;4.70;99.90
2523;DHT22;1272;53.332;9.860;2023-04-03T08:59:05;4.70;99.90
2523;DHT22;1272;53.332;9.860;2023-04-03T09:01:36;4.70;99.90
2523;DHT22;1272;53.332;9.860;2023-04-03T09:04:09;4.90;99.90
2523;DHT22;1272;53.332;9.860;2023-04-03T09:06:36;4.90;99.90
2523;DHT22;1272;53.332;9.860;2023-04-03T09:12:16;4.80;99.90
2523;DHT22;1272;53.332;9.860;2023-04-03T09:22:52;5.20;99.90
2523;DHT22;1272;53.332;9.860;2023-04-03T09:25:23;5.30;99.90
2523;DHT22;1272;53.332;9.860;2023-04-03T09:27:50;5.30;99.90
2523;DHT22;1272;53.332;9.860;2023-04-03T09:30:23;5.30;99.90
2523;DHT22;1272;53.332;9.860;2023-04-03T09:32:51;5.40;99.90
2523;DHT22;1272;53.332;9.860;2023-04-03T09:35:24;5.30;99.90
2523;DHT22;1272;53.332;9.860;2023-04-03T09:37:52;5.50;99.90
2523;DHT22;1272;53.332;9.860;2023-04-03T09:40:29;5.60;99.90
2523;DHT22;1272;53.332;9.860;2023-04-03T09:42:58;5.70;99.90
2523;DHT22;1272;53.332;9.860;2023-04-03T09:45:34;5.90;99.90
2523;DHT22;1272;53.332;9.860;2023-04-03T09:48:17;6.10;99.90
2523;DHT22;1272;53.332;9.860;2023-04-03T09:50:56;6.10;99.90
2523;DHT22;1272;53.332;9.860;2023-04-03T09:53:39;6.30;99.90
2523;DHT22;1272;53.332;9.860;2023-04-03T09:56:29;6.40;99.90
2523;DHT22;1272;53.332;9.860;2023-04-03T10:04:15;7.00;99.90
2523;DHT22;1272;53.332;9.860;2023-04-03T10:06:44;7.20;99.90
2523;DHT22;1272;53.332;9.860;2023-04-03T10:12:10;7.10;99.90
2523;DHT22;1272;53.332;9.860;2023-04-03T10:14:38;7.20;99.90
2523;DHT22;1272;53.332;9.860;2023-04-03T10:17:56;7.40;99.90
2523;DHT22;1272;53.332;9.860;2023-04-03T10:29:55;7.70;99.90
2523;DHT22;1272;53.332;9.860;2023-04-03T10:32:16;7.80;99.90
2523;DHT22;1272;53.332;9.860;2023-04-03T10:34:54;8.20;99.90
2523;DHT22;1272;53.332;9.860;2023-04-03T10:40:35;8.00;99.90
2523;DHT22;1272;53.332;9.860;2023-04-03T10:51:28;7.70;99.90
2523;DHT22;1272;53.332;9.860;2023-04-03T10:54:20;8.10;99.90
2523;DHT22;1272;53.332;9.860;2023-04-03T10:56:55;8.50;99.90
2523;DHT22;1272;53.332;9.860;2023-04-03T10:59:43;8.80;99.90
2523;DHT22;1272;53.332;9.860;2023-04-03T11:02:26;8.80;99.90
2523;DHT22;1272;53.332;9.860;2023-04-03T11:11:15;9.30;99.90
2523;DHT22;1272;53.332;9.860;2023-04-03T11:14:17;9.60;99.90
2523;DHT22;1272;53.332;9.860;2023-04-03T11:16:50;9.70;99.90
2523;DHT22;1272;53.332;9.860;2023-04-03T11:22:33;9.50;99.90
2523;DHT22;1272;53.332;9.860;2023-04-03T11:27:47;9.00;99.90
2523;DHT22;1272;53.332;9.860;2023-04-03T11:30:20;9.00;99.90
2523;DHT22;1272;53.332;9.860;2023-04-03T11:35:53;9.20;99.90
2523;DHT22;1272;53.332;9.860;2023-04-03T11:38:28;9.60;99.90
2523;DHT22;1272;53.332;9.860;2023-04-03T11:40:57;9.80;99.90
2523;DHT22;1272;53.332;9.860;2023-04-03T11:43:30;10.00;99.90
2523;DHT22;1272;53.332;9.860;2023-04-03T11:46:05;10.00;99.90
2523;DHT22;1272;53.332;9.860;2023-04-03T11:53:42;9.90;99.90
2523;DHT22;1272;53.332;9.860;2023-04-03T12:01:45;10.40;99.90
2523;DHT22;1272;53.332;9.860;2023-04-03T12:04:12;10.40;99.90
2523;DHT22;1272;53.332;9.860;2023-04-03T12:09:26;10.20;99.90
2523;DHT22;1272;53.332;9.860;2023-04-03T12:11:53;10.30;99.90
2523;DHT22;1272;53.332;9.860;2023-04-03T12:14:23;10.30;99.90
2523;DHT22;1272;53.332;9.860;2023-04-03T12:16:53;10.60;99.90
2523;DHT22;1272;53.332;9.860;2023-04-03T12:19:39;10.70;99.90
2523;DHT22;1272;53.332;9.860;2023-04-03T12:22:14;10.70;99.90
2523;DHT22;1272;53.332;9.860;2023-04-03T12:24:45;10.60;99.90
2523;DHT22;1272;53.332;9.860;2023-04-03T12:27:28;11.00;99.90
2523;DHT22;1272;53.332;9.860;2023-04-03T12:46:04;10.00;99.90
2523;DHT22;1272;53.332;9.860;2023-04-03T12:48:48;9.60;99.90
2523;DHT22;1272;53.332;9.860;2023-04-03T12:54:04;9.60;99.90
2523;DHT22;1272;53.332;9.860;2023-04-03T12:56:38;9.60;99.90
2523;DHT22;1272;53.332;9.860;2023-04-03T12:59:22;10.10;99.90
2523;DHT22;1272;53.332;9.860;2023-04-03T13:01:58;10.60;99.90
2523;DHT22;1272;53.332;9.860;2023-04-03T13:04:25;11.10;99.90
2523;DHT22;1272;53.332;9.860;2023-04-03T13:06:52;11.20;99.90
2523;DHT22;1272;53.332;9.860;2023-04-03T13:09:29;10.90;99.90
2523;DHT22;1272;53.332;9.860;2023-04-03T13:12:03;10.50;99.90
2523;DHT22;1272;53.332;9.860;2023-04-03T13:14:35;10.30;99.90
2523;DHT22;1272;53.332;9.860;2023-04-03T13:17:15;10.00;99.90
2523;DHT22;1272;53.332;9.860;2023-04-03T13:19:42;9.60;99.90
2523;DHT22;1272;53.332;9.860;2023-04-03T13:22:27;9.40;99.90
2523;DHT22;1272;53.332;9.860;2023-04-03T13:24:55;9.10;99.90
2523;DHT22;1272;53.332;9.860;2023-04-03T13:27:32;8.90;99.90
2523;DHT22;1272;53.332;9.860;2023-04-03T13:30:00;9.00;99.90
2523;DHT22;1272;53.332;9.860;2023-04-03T13:32:28;9.20;99.90
2523;DHT22;1272;53.332;9.860;2023-04-03T13:34:55;9.60;99.90
2523;DHT22;1272;53.332;9.860;2023-04-03T13:37:33;10.00;99.90
2523;DHT22;1272;53.332;9.860;2023-04-03T13:40:11;10.30;99.90
2523;DHT22;1272;53.332;9.860;2023-04-03T13:42:41;10.30;99.90
2523;DHT22;1272;53.332;9.860;2023-04-03T13:45:20;9.80;99.90
2523;DHT22;1272;53.332;9.860;2023-04-03T13:47:48;9.30;99.90
2523;DHT22;1272;53.332;9.860;2023-04-03T13:50:26;9.60;99.90
2523;DHT22;1272;53.332;9.860;2023-04-03T13:53:02;10.00;99.90
2523;DHT22;1272;53.332;9.860;2023-04-03T13:55:36;10.50;99.90
2523;DHT22;1272;53.332;9.860;2023-04-03T14:00:50;10.70;99.90
2523;DHT22;1272;53.332;9.860;2023-04-03T14:03:23;11.10;99.90
2523;DHT22;1272;53.332;9.860;2023-04-03T14:05:49;11.30;99.90
2523;DHT22;1272;53.332;9.860;2023-04-03T14:08:15;11.50;99.90
2523;DHT22;1272;53.332;9.860;2023-04-03T14:10:42;11.60;99.90
2523;DHT22;1272;53.332;9.860;2023-04-03T14:13:14;11.60;99.90
2523;DHT22;1272;53.332;9.860;2023-04-03T14:15:41;11.70;99.90
2523;DHT22;1272;53.332;9.860;2023-04-03T14:18:14;11.50;99.90
2523;DHT22;1272;53.332;9.860;2023-04-03T14:20:39;10.90;99.90
2523;DHT22;1272;53.332;9.860;2023-04-03T14:23:05;10.60;99.90
2523;DHT22;1272;53.332;9.860;2023-04-03T14:25:32;10.70;99.90
2523;DHT22;1272;53.332;9.860;2023-04-03T14:27:58;11.00;99.90
2523;DHT22;1272;53.332;9.860;2023-04-03T14:30:33;11.20;99.90
2523;DHT22;1272;53.332;9.860;2023-04-03T14:33:00;11.30;99.90
2523;DHT22;1272;53.332;9.860;2023-04-03T14:35:26;11.70;99.90
2523;DHT22;1272;53.332;9.860;2023-04-03T14:37:53;11.50;99.90
2523;DHT22;1272;53.332;9.860;2023-04-03T14:40:24;11.00;99.90
2523;DHT22;1272;53.332;9.860;2023-04-03T14:42:50;10.40;99.90
2523;DHT22;1272;53.332;9.860;2023-04-03T14:45:17;10.20;99.90
2523;DHT22;1272;53.332;9.860;2023-04-03T14:47:49;10.30;99.90
2523;DHT22;1272;53.332;9.860;2023-04-03T14:50:20;10.50;99.90
2523;DHT22;1272;53.332;9.860;2023-04-03T14:52:48;10.80;99.90
2523;DHT22;1272;53.332;9.860;2023-04-03T14:55:16;11.00;99.90
2523;DHT22;1272;53.332;9.860;2023-04-03T14:57:43;11.30;99.90
2523;DHT22;1272;53.332;9.860;2023-04-03T15:00:20;11.30;99.90
2523;DHT22;1272;53.332;9.860;2023-04-03T15:02:46;11.10;99.90
2523;DHT22;1272;53.332;9.860;2023-04-03T15:05:14;10.60;99.90
2523;DHT22;1272;53.332;9.860;2023-04-03T15:07:46;10.10;99.90
2523;DHT22;1272;53.332;9.860;2023-04-03T15:10:23;9.90;99.90
2523;DHT22;1272;53.332;9.860;2023-04-03T15:12:50;9.90;99.90
2523;DHT22;1272;53.332;9.860;2023-04-03T15:15:18;10.10;99.90
2523;DHT22;1272;53.332;9.860;2023-04-03T15:17:45;10.10;99.90
2523;DHT22;1272;53.332;9.860;2023-04-03T15:20:19;10.30;99.90
2523;DHT22;1272;53.332;9.860;2023-04-03T15:22:45;10.60;99.90
2523;DHT22;1272;53.332;9.860;2023-04-03T15:25:12;10.80;99.90
2523;DHT22;1272;53.332;9.860;2023-04-03T15:27:39;10.80;99.90
2523;DHT22;1272;53.332;9.860;2023-04-03T15:30:10;10.70;99.90
2523;DHT22;1272;53.332;9.860;2023-04-03T15:32:39;10.80;99.90
2523;DHT22;1272;53.332;9.860;2023-04-03T15:35:05;10.70;99.90
2523;DHT22;1272;53.332;9.860;2023-04-03T15:37:31;10.80;99.90
2523;DHT22;1272;53.332;9.860;2023-04-03T15:39:57;10.70;99.90
2523;DHT22;1272;53.332;9.860;2023-04-03T15:42:23;10.60;99.90
2523;DHT22;1272;53.332;9.860;2023-04-03T15:44:49;10.60;99.90
2523;DHT22;1272;53.332;9.860;2023-04-03T15:47:14;10.40;99.90
2523;DHT22;1272;53.332;9.860;2023-04-03T15:49:40;10.50;99.90
2523;DHT22;1272;53.332;9.860;2023-04-03T15:52:06;10.60;99.90
2523;DHT22;1272;53.332;9.860;2023-04-03T15:54:36;10.50;99.90
2523;DHT22;1272;53.332;9.860;2023-04-03T15:57:02;10.40;99.90
2523;DHT22;1272;53.332;9.860;2023-04-03T15:59:28;10.50;99.90
2523;DHT22;1272;53.332;9.860;2023-04-03T16:01:56;10.10;99.90
2523;DHT22;1272;53.332;9.860;2023-04-03T16:04:22;10.10;99.90
2523;DHT22;1272;53.332;9.860;2023-04-03T16:06:48;10.00;99.90
2523;DHT22;1272;53.332;9.860;2023-04-03T16:09:14;10.00;99.90
2523;DHT22;1272;53.332;9.860;2023-04-03T16:11:40;9.90;99.90
2523;DHT22;1272;53.332;9.860;2023-04-03T16:14:06;9.60;99.90
2523;DHT22;1272;53.332;9.860;2023-04-03T16:16:32;9.40;99.90
2523;DHT22;1272;53.332;9.860;2023-04-03T16:18:58;9.10;99.90
2523;DHT22;1272;53.332;9.860;2023-04-03T16:21:24;9.00;99.90
2523;DHT22;1272;53.332;9.860;2023-04-03T16:23:50;8.70;99.90
2523;DHT22;1272;53.332;9.860;2023-04-03T16:26:16;8.60;99.90
2523;DHT22;1272;53.332;9.860;2023-04-03T16:28:43;8.50;99.90
2523;DHT22;1272;53.332;9.860;2023-04-03T16:31:09;8.40;99.90
2523;DHT22;1272;53.332;9.860;2023-04-03T16:33:35;8.20;99.90
2523;DHT22;1272;53.332;9.860;2023-04-03T16:36:03;8.00;99.90
2523;DHT22;1272;53.332;9.860;2023-04-03T16:38:30;7.70;99.90
2523;DHT22;1272;53.332;9.860;2023-04-03T16:40:56;7.90;99.90
2523;DHT22;1272;53.332;9.860;2023-04-03T16:43:26;7.80;99.90
2523;DHT22;1272;53.332;9.860;2023-04-03T16:45:52;7.60;99.90
2523;DHT22;1272;53.332;9.860;2023-04-03T16:48:17;7.50;99.90
2523;DHT22;1272;53.332;9.860;2023-04-03T16:50:47;7.40;99.90
2523;DHT22;1272;53.332;9.860;2023-04-03T16:53:14;7.30;99.90
2523;DHT22;1272;53.332;9.860;2023-04-03T16:55:40;7.40;99.90
2523;DHT22;1272;53.332;9.860;2023-04-03T16:58:05;7.20;99.90
2523;DHT22;1272;53.332;9.860;2023-04-03T17:00:32;7.20;99.90
2523;DHT22;1272;53.332;9.860;2023-04-03T17:02:57;7.20;99.90
2523;DHT22;1272;53.332;9.860;2023-04-03T17:05:23;7.10;99.90
2523;DHT22;1272;53.332;9.860;2023-04-03T17:07:50;7.00;99.90
2523;DHT22;1272;53.332;9.860;2023-04-03T17:10:15;6.90;99.90
2523;DHT22;1272;53.332;9.860;2023-04-03T17:12:41;6.80;99.90
2523;DHT22;1272;53.332;9.860;2023-04-03T17:15:07;6.70;99.90
2523;DHT22;1272;53.332;9.860;2023-04-03T17:17:33;6.70;99.90
2523;DHT22;1272;53.332;9.860;2023-04-03T17:19:59;6.60;99.90
2523;DHT22;1272;53.332;9.860;2023-04-03T17:22:25;6.60;99.90
2523;DHT22;1272;53.332;9.860;2023-04-03T17:24:50;6.50;99.90
2523;DHT22;1272;53.332;9.860;2023-04-03T17:27:16;6.40;99.90
2523;DHT22;1272;53.332;9.860;2023-04-03T17:29:42;6.30;99.90
2523;DHT22;1272;53.332;9.860;2023-04-03T17:32:07;6.20;99.90
2523;DHT22;1272;53.332;9.860;2023-04-03T17:34:33;6.10;99.90
2523;DHT22;1272;53.332;9.860;2023-04-03T17:37:01;6.20;99.90
2523;DHT22;1272;53.332;9.860;2023-04-03T17:39:27;6.10;99.90
2523;DHT22;1272;53.332;9.860;2023-04-03T17:41:52;6.00;99.90
2523;DHT22;1272;53.332;9.860;2023-04-03T17:44:20;5.90;99.90
2523;DHT22;1272;53.332;9.860;2023-04-03T17:46:45;5.90;99.90
2523;DHT22;1272;53.332;9.860;2023-04-03T17:49:11;5.80;99.90
2523;DHT22;1272;53.332;9.860;2023-04-03T17:51:40;5.80;99.90
2523;DHT22;1272;53.332;9.860;2023-04-03T17:54:06;5.80;99.90
2523;DHT22;1272;53.332;9.860;2023-04-03T17:56:32;5.80;99.90
2523;DHT22;1272;53.332;9.860;2023-04-03T17:58:58;5.70;99.90